Time;durP1;ratioP1;P1;durP2;ratioP2;P2;SDS_P1;SDS_P2;PMS_P1;PMS_P2;Temp;Humidity;BMP_temperature;BMP_pressure;BME280_temperature;BME280_humidity;BME280_pressure;Samples;Min_cycle;Max_cycle;Signal;HPM_P1;HPM_P2
2023/08/20 00:01:09;;;;;;;;;;;17.60;99.90;;;;;;5136540;27;19907;-43
2023/08/20 00:03:35;;;;;;;;;;;17.60;99.90;;;;;;5136403;27;20290;-43
2023/08/20 00:06:03;;;;;;;;;;;17.60;99.90;;;;;;5136041;27;20056;-42
2023/08/20 00:08:29;;;;;;;;;;;17.50;99.90;;;;;;5136324;27;19911;-42
2023/08/20 00:10:54;;;;;;;;;;;17.40;99.90;;;;;;5136319;27;19908;-43
2023/08/20 00:13:20;;;;;;;;;;;17.40;99.90;;;;;;5136298;27;19949;-45
2023/08/20 00:15:45;;;;;;;;;;;17.30;99.90;;;;;;5136319;27;20319;-42
2023/08/20 00:18:11;;;;;;;;;;;17.30;99.90;;;;;;5136125;27;20312;-43
2023/08/20 00:20:37;;;;;;;;;;;17.30;99.90;;;;;;5135570;27;19912;-43
2023/08/20 00:23:04;;;;;;;;;;;17.20;99.90;;;;;;5136207;27;19914;-41
2023/08/20 00:25:29;;;;;;;;;;;17.10;99.90;;;;;;5135795;27;19908;-43
2023/08/20 00:27:55;;;;;;;;;;;17.10;99.90;;;;;;5135719;27;19918;-43
2023/08/20 00:30:20;;;;;;;;;;;17.10;99.90;;;;;;5135956;27;19942;-42
2023/08/20 00:32:46;;;;;;;;;;;17.00;99.90;;;;;;5135859;27;19907;-46
2023/08/20 00:35:11;;;;;;;;;;;17.00;99.90;;;;;;5135950;27;19933;-43
2023/08/20 00:37:37;;;;;;;;;;;17.00;99.90;;;;;;5135633;27;19911;-43
2023/08/20 00:40:04;;;;;;;;;;;17.00;99.90;;;;;;5135752;27;20428;-41
2023/08/20 00:42:30;;;;;;;;;;;17.00;99.90;;;;;;5135680;27;19908;-43
2023/08/20 00:44:55;;;;;;;;;;;17.00;99.90;;;;;;5135353;27;20001;-41
2023/08/20 00:47:21;;;;;;;;;;;17.00;99.90;;;;;;5135681;27;19923;-42
2023/08/20 00:49:47;;;;;;;;;;;16.90;99.90;;;;;;5134824;27;19912;-42
2023/08/20 00:52:13;;;;;;;;;;;16.90;99.90;;;;;;5117019;27;19912;-44
2023/08/20 00:54:40;;;;;;;;;;;16.80;99.90;;;;;;5114892;28;19940;-42
2023/08/20 00:57:06;;;;;;;;;;;16.80;99.90;;;;;;5114946;28;19981;-42
2023/08/20 00:59:32;;;;;;;;;;;16.70;99.90;;;;;;5113685;28;19915;-42
2023/08/20 01:01:58;;;;;;;;;;;16.70;99.90;;;;;;5114884;28;19908;-42
2023/08/20 01:04:23;;;;;;;;;;;16.60;99.90;;;;;;5114753;28;19998;-41
2023/08/20 01:07:11;;;;;;;;;;;16.50;99.90;;;;;;5114768;28;19998;-42
2023/08/20 01:09:49;;;;;;;;;;;16.40;99.90;;;;;;5114717;28;19914;-40
2023/08/20 01:12:16;;;;;;;;;;;16.40;99.90;;;;;;5114732;28;19908;-41
2023/08/20 01:14:42;;;;;;;;;;;16.40;99.90;;;;;;5114540;28;19912;-41
2023/08/20 01:17:07;;;;;;;;;;;16.30;99.90;;;;;;5114534;28;19930;-43
2023/08/20 01:19:33;;;;;;;;;;;16.30;99.90;;;;;;5118869;27;19923;-42
2023/08/20 01:22:31;;;;;;;;;;;16.20;99.90;;;;;;5134735;27;19964;-40
2023/08/20 01:25:35;;;;;;;;;;;16.30;99.90;;;;;;5089021;27;19908;-42
2023/08/20 01:28:19;;;;;;;;;;;16.30;99.90;;;;;;5051313;28;19921;-42
2023/08/20 01:30:45;;;;;;;;;;;16.30;99.90;;;;;;5051135;28;19909;-42
2023/08/20 01:33:12;;;;;;;;;;;16.20;99.90;;;;;;5099867;27;19916;-42
2023/08/20 01:35:38;;;;;;;;;;;16.20;99.90;;;;;;5134695;27;20157;-43
2023/08/20 01:38:04;;;;;;;;;;;16.20;99.90;;;;;;5134748;27;20076;-42
2023/08/20 01:40:29;;;;;;;;;;;16.20;99.90;;;;;;5134587;27;20366;-41
2023/08/20 01:42:55;;;;;;;;;;;16.10;99.90;;;;;;5134634;27;19911;-41
2023/08/20 01:45:21;;;;;;;;;;;16.20;99.90;;;;;;5134329;27;19920;-41
2023/08/20 01:47:47;;;;;;;;;;;16.20;99.90;;;;;;5134480;27;19930;-43
2023/08/20 01:50:12;;;;;;;;;;;16.10;99.90;;;;;;5134527;27;20354;-42
2023/08/20 01:52:38;;;;;;;;;;;16.10;99.90;;;;;;5134402;27;19914;-42
2023/08/20 01:55:04;;;;;;;;;;;16.10;99.90;;;;;;5134345;27;20320;-42
2023/08/20 01:57:29;;;;;;;;;;;16.00;99.90;;;;;;5116862;27;20370;-43
2023/08/20 01:59:55;;;;;;;;;;;16.00;99.90;;;;;;5113781;28;20263;-41
2023/08/20 02:02:20;;;;;;;;;;;16.00;99.90;;;;;;5113680;28;19908;-43
2023/08/20 02:04:46;;;;;;;;;;;16.00;99.90;;;;;;5113731;27;19918;-41
2023/08/20 02:07:11;;;;;;;;;;;16.00;99.90;;;;;;5113690;28;20440;-42
2023/08/20 02:09:37;;;;;;;;;;;15.90;99.90;;;;;;5113477;28;20275;-42
2023/08/20 02:12:02;;;;;;;;;;;15.90;99.90;;;;;;5113297;28;19996;-44
2023/08/20 02:14:28;;;;;;;;;;;16.00;99.90;;;;;;5113374;28;19908;-43
2023/08/20 02:16:54;;;;;;;;;;;16.00;99.90;;;;;;5113532;28;19907;-42
2023/08/20 02:19:20;;;;;;;;;;;16.10;99.90;;;;;;5113307;28;19915;-44
2023/08/20 02:21:45;;;;;;;;;;;16.00;99.90;;;;;;5113414;28;20463;-41
2023/08/20 02:24:11;;;;;;;;;;;16.00;99.90;;;;;;5113295;28;19908;-43
2023/08/20 02:26:36;;;;;;;;;;;15.90;99.90;;;;;;5113080;28;19912;-41
2023/08/20 02:29:02;;;;;;;;;;;15.90;99.90;;;;;;5113416;28;19919;-42
2023/08/20 02:31:28;;;;;;;;;;;15.90;99.90;;;;;;5113230;28;19915;-44
2023/08/20 02:33:53;;;;;;;;;;;15.90;99.90;;;;;;5113187;28;19908;-42
2023/08/20 02:36:19;;;;;;;;;;;15.90;99.90;;;;;;5113240;28;19908;-42
2023/08/20 02:38:44;;;;;;;;;;;15.90;99.90;;;;;;5113039;28;20270;-42
2023/08/20 02:41:11;;;;;;;;;;;15.90;99.90;;;;;;5113216;28;19908;-41
2023/08/20 02:43:37;;;;;;;;;;;15.90;99.90;;;;;;5113108;28;19911;-42
2023/08/20 02:46:03;;;;;;;;;;;15.90;99.90;;;;;;5113305;28;19915;-42
2023/08/20 02:48:29;;;;;;;;;;;15.90;99.90;;;;;;5113037;28;19930;-43
2023/08/20 02:50:54;;;;;;;;;;;15.90;99.90;;;;;;5113048;28;19908;-41
2023/08/20 02:53:23;;;;;;;;;;;15.80;99.90;;;;;;5112976;28;19908;-42
2023/08/20 02:55:48;;;;;;;;;;;15.90;99.90;;;;;;5114928;28;19995;-41
2023/08/20 02:58:14;;;;;;;;;;;15.80;99.90;;;;;;5133577;28;20056;-40
2023/08/20 03:00:39;;;;;;;;;;;15.80;99.90;;;;;;5133464;28;19954;-42
2023/08/20 03:03:05;;;;;;;;;;;15.80;99.90;;;;;;5133406;28;20349;-42
2023/08/20 03:05:31;;;;;;;;;;;15.80;99.90;;;;;;5133114;28;19911;-42
2023/08/20 03:07:57;;;;;;;;;;;15.80;99.90;;;;;;5133429;28;19907;-40
2023/08/20 03:10:23;;;;;;;;;;;15.80;99.90;;;;;;5133442;28;19914;-42
2023/08/20 03:12:48;;;;;;;;;;;15.70;99.90;;;;;;5133389;28;20403;-43
2023/08/20 03:15:14;;;;;;;;;;;15.70;99.90;;;;;;5133403;28;19911;-42
2023/08/20 03:17:39;;;;;;;;;;;15.70;99.90;;;;;;5133512;28;19919;-42
2023/08/20 03:20:06;;;;;;;;;;;15.70;99.90;;;;;;5133400;28;20381;-42
2023/08/20 03:22:32;;;;;;;;;;;15.70;99.90;;;;;;5133512;27;20093;-42
2023/08/20 03:24:57;;;;;;;;;;;15.70;99.90;;;;;;5137400;27;19907;-41
2023/08/20 03:27:22;;;;;;;;;;;15.80;99.90;;;;;;5136920;27;20310;-40
2023/08/20 03:29:48;;;;;;;;;;;15.80;99.90;;;;;;5137162;27;20362;-41
2023/08/20 03:32:13;;;;;;;;;;;15.80;99.90;;;;;;5137233;27;19907;-42
2023/08/20 03:34:39;;;;;;;;;;;15.80;99.90;;;;;;5137035;27;19934;-41
2023/08/20 03:37:04;;;;;;;;;;;15.80;99.90;;;;;;5136995;27;19908;-42
2023/08/20 03:39:31;;;;;;;;;;;15.80;99.90;;;;;;5136955;27;19968;-43
2023/08/20 03:41:57;;;;;;;;;;;15.80;99.90;;;;;;5137087;27;19911;-41
2023/08/20 03:44:22;;;;;;;;;;;15.80;99.90;;;;;;5136562;27;19924;-41
2023/08/20 03:46:48;;;;;;;;;;;15.90;99.90;;;;;;5137166;27;19907;-43
2023/08/20 03:49:13;;;;;;;;;;;15.90;99.90;;;;;;5122710;27;19912;-41
2023/08/20 03:51:39;;;;;;;;;;;15.90;99.90;;;;;;5116158;28;19912;-42
2023/08/20 03:54:06;;;;;;;;;;;16.00;99.90;;;;;;5115521;28;20213;-40
2023/08/20 03:56:32;;;;;;;;;;;16.00;99.90;;;;;;5116116;28;19912;-40
2023/08/20 03:58:57;;;;;;;;;;;16.00;99.90;;;;;;5123610;27;20297;-42
2023/08/20 04:01:23;;;;;;;;;;;16.00;99.90;;;;;;5136547;27;19907;-42
2023/08/20 04:03:48;;;;;;;;;;;16.10;99.90;;;;;;5118491;27;19912;-43
2023/08/20 04:06:14;;;;;;;;;;;16.10;99.90;;;;;;5115956;28;20320;-42
2023/08/20 04:08:39;;;;;;;;;;;16.10;99.90;;;;;;5115831;28;19912;-42
2023/08/20 04:11:05;;;;;;;;;;;16.10;99.90;;;;;;5115885;28;19951;-42
2023/08/20 04:13:31;;;;;;;;;;;16.10;99.90;;;;;;5115782;28;19960;-42
2023/08/20 04:15:57;;;;;;;;;;;16.10;99.90;;;;;;5115928;28;20359;-40
2023/08/20 04:18:22;;;;;;;;;;;16.10;99.90;;;;;;5115586;27;20374;-43
2023/08/20 04:20:50;;;;;;;;;;;16.10;99.90;;;;;;5115612;28;19915;-42
2023/08/20 04:23:16;;;;;;;;;;;16.10;99.90;;;;;;5115772;28;19918;-41
2023/08/20 04:25:41;;;;;;;;;;;16.00;99.90;;;;;;5115528;28;19916;-42
2023/08/20 04:28:07;;;;;;;;;;;16.00;99.90;;;;;;5115015;28;19912;-41
2023/08/20 04:30:34;;;;;;;;;;;16.00;99.90;;;;;;5118269;27;20308;-40
2023/08/20 04:32:59;;;;;;;;;;;16.00;99.90;;;;;;5115452;28;19951;-41
2023/08/20 04:35:25;;;;;;;;;;;16.00;99.90;;;;;;5122294;27;19969;-41
2023/08/20 04:37:50;;;;;;;;;;;16.00;99.90;;;;;;5135893;27;19963;-43
2023/08/20 04:40:16;;;;;;;;;;;16.00;99.90;;;;;;5135876;27;19930;-45
2023/08/20 04:42:41;;;;;;;;;;;16.00;99.90;;;;;;5121663;27;19933;-41
2023/08/20 04:45:07;;;;;;;;;;;16.00;99.90;;;;;;5114923;28;20010;-40
2023/08/20 04:47:33;;;;;;;;;;;16.00;99.90;;;;;;5115043;28;19912;-42
2023/08/20 04:49:58;;;;;;;;;;;16.00;99.90;;;;;;5114989;28;19907;-40
2023/08/20 04:52:24;;;;;;;;;;;16.00;99.90;;;;;;5115296;28;19912;-44
2023/08/20 04:54:49;;;;;;;;;;;16.00;99.90;;;;;;5114928;28;20006;-42
2023/08/20 04:57:16;;;;;;;;;;;16.00;99.90;;;;;;5115026;28;19908;-42
2023/08/20 04:59:44;;;;;;;;;;;16.00;99.90;;;;;;5114761;28;20400;-42
2023/08/20 05:02:13;;;;;;;;;;;16.10;99.90;;;;;;5114919;28;19933;-42
2023/08/20 05:04:38;;;;;;;;;;;16.10;99.90;;;;;;5114789;28;19908;-42
2023/08/20 05:07:04;;;;;;;;;;;16.20;99.90;;;;;;5114775;28;19931;-42
2023/08/20 05:09:29;;;;;;;;;;;16.20;99.90;;;;;;5114722;28;19915;-42
2023/08/20 05:11:55;;;;;;;;;;;16.20;99.90;;;;;;5123483;27;19908;-42
2023/08/20 05:14:20;;;;;;;;;;;16.20;99.90;;;;;;5135213;27;19912;-40
2023/08/20 05:16:46;;;;;;;;;;;16.30;99.90;;;;;;5127588;27;20278;-41
2023/08/20 05:19:11;;;;;;;;;;;16.30;99.90;;;;;;5126435;27;20026;-41
2023/08/20 05:21:37;;;;;;;;;;;16.30;99.90;;;;;;5134571;27;19908;-41
2023/08/20 05:24:03;;;;;;;;;;;16.40;99.90;;;;;;5135072;27;19919;-42
2023/08/20 05:26:29;;;;;;;;;;;16.40;99.90;;;;;;5134872;27;19994;-43
2023/08/20 05:28:54;;;;;;;;;;;16.40;99.90;;;;;;5134247;27;20001;-40
2023/08/20 05:31:20;;;;;;;;;;;16.40;99.90;;;;;;5133717;27;19911;-41
2023/08/20 05:33:45;;;;;;;;;;;16.50;99.90;;;;;;5133277;27;19919;-41
2023/08/20 05:36:11;;;;;;;;;;;16.50;99.90;;;;;;5134757;27;19918;-43
2023/08/20 05:38:36;;;;;;;;;;;16.50;99.90;;;;;;5134462;27;19915;-41
2023/08/20 05:41:01;;;;;;;;;;;16.50;99.90;;;;;;5134749;27;19911;-42
2023/08/20 05:43:27;;;;;;;;;;;16.60;99.90;;;;;;5133913;27;19955;-42
2023/08/20 05:45:52;;;;;;;;;;;16.60;99.90;;;;;;5125471;27;19992;-42
2023/08/20 05:48:18;;;;;;;;;;;16.60;99.90;;;;;;5123136;27;19918;-44
2023/08/20 05:50:44;;;;;;;;;;;16.60;99.90;;;;;;5133060;27;19907;-41
2023/08/20 05:53:10;;;;;;;;;;;16.60;99.90;;;;;;5133392;27;19908;-42
2023/08/20 05:55:35;;;;;;;;;;;16.60;99.90;;;;;;5118631;27;19912;-42
2023/08/20 05:58:00;;;;;;;;;;;16.70;99.90;;;;;;5125722;27;20377;-41
2023/08/20 06:00:26;;;;;;;;;;;16.80;99.90;;;;;;5134240;27;19908;-41
2023/08/20 06:02:51;;;;;;;;;;;16.80;99.90;;;;;;5134007;27;19911;-41
2023/08/20 06:05:17;;;;;;;;;;;16.80;99.90;;;;;;5133593;27;19954;-42
2023/08/20 06:07:42;;;;;;;;;;;16.80;99.90;;;;;;5133971;27;19918;-40
2023/08/20 06:10:08;;;;;;;;;;;16.90;99.90;;;;;;5133930;27;19915;-44
2023/08/20 06:12:34;;;;;;;;;;;16.90;99.90;;;;;;5133805;27;19969;-41
2023/08/20 06:14:59;;;;;;;;;;;17.00;99.90;;;;;;5136443;27;19911;-42
2023/08/20 06:17:25;;;;;;;;;;;17.00;99.90;;;;;;5154389;27;19911;-42
2023/08/20 06:19:50;;;;;;;;;;;17.10;99.90;;;;;;5148192;27;19943;-42
2023/08/20 06:22:16;;;;;;;;;;;17.10;99.90;;;;;;5133438;27;19957;-42
2023/08/20 06:24:41;;;;;;;;;;;17.20;99.90;;;;;;5119287;27;19919;-42
2023/08/20 06:27:07;;;;;;;;;;;17.30;99.90;;;;;;5117803;27;19968;-41
2023/08/20 06:29:32;;;;;;;;;;;17.30;99.90;;;;;;5133783;27;20491;-44
2023/08/20 06:31:58;;;;;;;;;;;17.30;99.90;;;;;;5131177;27;19916;-42
2023/08/20 06:34:24;;;;;;;;;;;17.40;99.90;;;;;;5120301;27;19965;-41
2023/08/20 06:36:49;;;;;;;;;;;17.50;99.90;;;;;;5113012;28;20267;-43
2023/08/20 06:39:15;;;;;;;;;;;17.60;99.90;;;;;;5113098;28;19955;-42
2023/08/20 06:41:41;;;;;;;;;;;17.60;99.90;;;;;;5113040;28;19907;-43
2023/08/20 06:44:06;;;;;;;;;;;17.60;99.90;;;;;;5115314;28;19920;-41
2023/08/20 06:46:32;;;;;;;;;;;17.60;99.90;;;;;;5133312;28;19969;-42
2023/08/20 06:48:57;;;;;;;;;;;17.70;99.90;;;;;;5127222;28;19911;-42
2023/08/20 06:51:23;;;;;;;;;;;17.70;99.90;;;;;;5127854;28;19911;-43
2023/08/20 06:53:49;;;;;;;;;;;17.80;99.90;;;;;;5122312;28;19959;-42
2023/08/20 06:56:14;;;;;;;;;;;17.90;99.90;;;;;;5124721;28;19918;-42
2023/08/20 06:58:41;;;;;;;;;;;17.90;99.90;;;;;;5127963;27;19928;-44
2023/08/20 07:01:07;;;;;;;;;;;18.00;99.90;;;;;;5129510;27;19918;-43
2023/08/20 07:03:41;;;;;;;;;;;18.00;99.90;;;;;;5133463;27;19912;-41
2023/08/20 07:06:09;;;;;;;;;;;18.10;99.90;;;;;;5132299;27;19911;-41
2023/08/20 07:08:34;;;;;;;;;;;18.20;99.90;;;;;;5133315;27;20344;-43
2023/08/20 07:11:00;;;;;;;;;;;18.20;99.90;;;;;;5132316;27;20006;-42
2023/08/20 07:13:25;;;;;;;;;;;18.30;99.90;;;;;;5136903;27;19943;-42
2023/08/20 07:15:51;;;;;;;;;;;18.40;99.90;;;;;;5137027;27;19953;-42
2023/08/20 07:18:16;;;;;;;;;;;18.40;99.90;;;;;;5136904;27;19984;-43
2023/08/20 07:20:42;;;;;;;;;;;18.50;99.90;;;;;;5136594;27;19965;-44
2023/08/20 07:23:08;;;;;;;;;;;18.60;99.90;;;;;;5136819;27;20002;-44
2023/08/20 07:25:36;;;;;;;;;;;18.70;99.90;;;;;;5136856;27;19929;-45
2023/08/20 07:28:02;;;;;;;;;;;18.70;99.90;;;;;;5130722;27;19912;-42
2023/08/20 07:30:28;;;;;;;;;;;18.80;99.90;;;;;;5134053;27;19908;-42
2023/08/20 07:32:53;;;;;;;;;;;18.90;99.90;;;;;;5135883;27;19914;-42
2023/08/20 07:35:19;;;;;;;;;;;19.00;99.90;;;;;;5136860;27;20330;-42
2023/08/20 07:37:46;;;;;;;;;;;19.10;99.90;;;;;;5135562;27;19915;-43
2023/08/20 07:40:12;;;;;;;;;;;19.20;99.90;;;;;;5136589;27;19907;-42
2023/08/20 07:42:38;;;;;;;;;;;19.20;99.90;;;;;;5136371;27;19907;-41
2023/08/20 07:45:04;;;;;;;;;;;19.20;99.90;;;;;;5132679;27;19934;-43
2023/08/20 07:47:29;;;;;;;;;;;19.30;99.90;;;;;;5133652;27;19946;-41
2023/08/20 07:49:55;;;;;;;;;;;19.40;99.90;;;;;;5132808;27;20350;-42
2023/08/20 07:52:20;;;;;;;;;;;19.50;99.90;;;;;;5133725;27;19994;-43
2023/08/20 07:54:46;;;;;;;;;;;19.60;99.90;;;;;;5136258;27;20278;-44
2023/08/20 07:57:11;;;;;;;;;;;19.70;99.90;;;;;;5136291;27;19907;-42
2023/08/20 07:59:37;;;;;;;;;;;19.80;99.90;;;;;;5136096;27;19915;-42
2023/08/20 08:02:03;;;;;;;;;;;19.90;99.90;;;;;;5133883;27;19912;-43
2023/08/20 08:04:29;;;;;;;;;;;19.90;99.90;;;;;;5118837;27;20307;-42
2023/08/20 08:06:54;;;;;;;;;;;20.00;99.90;;;;;;5128006;27;20397;-41
2023/08/20 08:09:29;;;;;;;;;;;20.10;99.90;;;;;;5132585;27;19995;-42
2023/08/20 08:11:55;;;;;;;;;;;20.20;99.90;;;;;;5133728;27;19939;-43
2023/08/20 08:14:21;;;;;;;;;;;20.30;99.90;;;;;;5117144;27;19955;-43
2023/08/20 08:16:46;;;;;;;;;;;20.40;99.90;;;;;;5114462;28;20381;-43
2023/08/20 08:19:12;;;;;;;;;;;20.40;99.90;;;;;;5114336;28;19916;-45
2023/08/20 08:21:38;;;;;;;;;;;20.50;99.90;;;;;;5114654;28;19968;-40
2023/08/20 08:24:04;;;;;;;;;;;20.60;99.90;;;;;;5114682;28;19908;-42
2023/08/20 08:26:30;;;;;;;;;;;20.70;99.90;;;;;;5114764;28;19907;-44
2023/08/20 08:28:55;;;;;;;;;;;20.80;99.90;;;;;;5114680;28;19908;-43
2023/08/20 08:31:21;;;;;;;;;;;20.80;99.90;;;;;;5115345;28;20355;-43
2023/08/20 08:33:47;;;;;;;;;;;20.90;99.90;;;;;;5115285;28;19914;-42
2023/08/20 08:36:12;;;;;;;;;;;20.90;99.90;;;;;;5117531;27;19912;-44
2023/08/20 08:38:38;;;;;;;;;;;21.00;99.90;;;;;;5114589;27;19919;-43
2023/08/20 08:41:07;;;;;;;;;;;21.00;99.90;;;;;;5115359;28;19907;-45
2023/08/20 08:43:32;;;;;;;;;;;21.00;99.90;;;;;;5114753;28;19914;-45
2023/08/20 08:45:58;;;;;;;;;;;21.10;99.90;;;;;;5114982;28;19916;-43
2023/08/20 08:48:24;;;;;;;;;;;21.20;99.90;;;;;;5115101;28;19995;-43
2023/08/20 08:50:51;;;;;;;;;;;21.30;99.90;;;;;;5114653;28;19907;-43
2023/08/20 08:53:17;;;;;;;;;;;21.30;99.90;;;;;;5115432;28;19915;-42
2023/08/20 08:55:43;;;;;;;;;;;21.30;99.90;;;;;;5115042;28;19973;-43
2023/08/20 08:58:08;;;;;;;;;;;21.40;99.90;;;;;;5115521;28;19955;-45
2023/08/20 09:00:34;;;;;;;;;;;21.40;99.90;;;;;;5115506;28;20006;-42
2023/08/20 09:02:59;;;;;;;;;;;21.50;99.90;;;;;;5115525;28;19908;-43
2023/08/20 09:05:25;;;;;;;;;;;21.60;99.90;;;;;;5115034;28;19907;-44
2023/08/20 09:07:57;;;;;;;;;;;21.60;99.90;;;;;;5119575;27;19911;-42
2023/08/20 09:10:25;;;;;;;;;;;21.60;99.90;;;;;;5135572;27;19911;-44
2023/08/20 09:12:53;;;;;;;;;;;21.70;99.90;;;;;;5135695;27;20033;-43
2023/08/20 09:15:19;;;;;;;;;;;21.80;99.90;;;;;;5135848;27;19994;-43
2023/08/20 09:17:46;;;;;;;;;;;21.80;99.90;;;;;;5135198;27;20337;-42
2023/08/20 09:20:12;;;;;;;;;;;21.90;99.90;;;;;;5120263;27;19935;-43
2023/08/20 09:22:37;;;;;;;;;;;22.00;99.90;;;;;;5124618;27;20288;-41
2023/08/20 09:25:03;;;;;;;;;;;22.10;99.90;;;;;;5130977;27;19976;-46
2023/08/20 09:27:28;;;;;;;;;;;22.10;99.90;;;;;;5128583;27;19912;-47
2023/08/20 09:29:55;;;;;;;;;;;22.20;99.90;;;;;;5147566;27;20342;-48
2023/08/20 09:32:24;;;;;;;;;;;22.20;99.90;;;;;;5151752;27;19972;-48
2023/08/20 09:34:51;;;;;;;;;;;22.20;99.90;;;;;;5134702;27;19912;-46
2023/08/20 09:37:17;;;;;;;;;;;22.40;99.90;;;;;;5133683;27;19915;-42
2023/08/20 09:39:42;;;;;;;;;;;22.40;99.90;;;;;;5134282;27;19926;-44
2023/08/20 09:42:08;;;;;;;;;;;22.50;99.90;;;;;;5133017;27;19911;-42
2023/08/20 09:44:35;;;;;;;;;;;22.60;99.90;;;;;;5133624;27;19920;-43
2023/08/20 09:47:11;;;;;;;;;;;22.70;99.90;;;;;;5132771;27;19912;-42
2023/08/20 09:49:38;;;;;;;;;;;22.80;99.90;;;;;;5132300;27;19908;-45
2023/08/20 09:52:04;;;;;;;;;;;22.80;99.90;;;;;;5133619;27;19922;-43
2023/08/20 09:54:51;;;;;;;;;;;22.90;99.90;;;;;;5134055;27;19972;-44
2023/08/20 09:57:32;;;;;;;;;;;23.00;99.90;;;;;;5131760;27;20288;-42
2023/08/20 09:59:58;;;;;;;;;;;23.00;99.90;;;;;;5129737;27;19926;-42
2023/08/20 10:02:25;;;;;;;;;;;23.10;99.90;;;;;;5134175;27;19907;-44
2023/08/20 10:04:51;;;;;;;;;;;23.20;99.90;;;;;;5131335;27;19950;-44
2023/08/20 10:07:18;;;;;;;;;;;23.20;99.90;;;;;;5134131;27;19960;-43
2023/08/20 10:09:47;;;;;;;;;;;23.30;99.90;;;;;;5133862;27;19912;-42
2023/08/20 10:12:13;;;;;;;;;;;23.30;99.90;;;;;;5131400;27;19911;-42
2023/08/20 10:14:40;;;;;;;;;;;23.30;99.90;;;;;;5130114;27;19911;-44
2023/08/20 10:17:06;;;;;;;;;;;23.30;99.90;;;;;;5141032;27;20290;-44
2023/08/20 10:19:32;;;;;;;;;;;23.40;99.90;;;;;;5140180;27;20304;-43
2023/08/20 10:21:58;;;;;;;;;;;23.40;99.90;;;;;;5134418;27;20334;-44
2023/08/20 10:24:23;;;;;;;;;;;23.50;99.90;;;;;;5133992;27;19955;-43
2023/08/20 10:27:06;;;;;;;;;;;23.50;99.90;;;;;;5134795;27;20405;-44
2023/08/20 10:29:39;;;;;;;;;;;23.60;99.90;;;;;;5133968;27;19914;-42
2023/08/20 10:32:05;;;;;;;;;;;23.70;99.90;;;;;;5133724;27;20569;-43
2023/08/20 10:34:35;;;;;;;;;;;23.70;99.90;;;;;;5133764;27;19911;-45
2023/08/20 10:37:03;;;;;;;;;;;23.70;99.90;;;;;;5134184;27;19994;-44
2023/08/20 10:39:28;;;;;;;;;;;23.80;99.90;;;;;;5133726;27;19919;-44
2023/08/20 10:42:12;;;;;;;;;;;23.90;99.90;;;;;;5133922;27;19914;-43
2023/08/20 10:44:56;;;;;;;;;;;23.90;99.90;;;;;;5133312;27;19919;-42
2023/08/20 10:47:22;;;;;;;;;;;23.80;99.90;;;;;;5131651;28;19911;-43
2023/08/20 10:49:51;;;;;;;;;;;23.90;99.90;;;;;;5133994;28;20347;-43
2023/08/20 10:52:17;;;;;;;;;;;23.90;99.90;;;;;;5133549;28;19961;-42
2023/08/20 10:54:43;;;;;;;;;;;24.00;99.90;;;;;;5133715;28;20369;-44
2023/08/20 10:57:08;;;;;;;;;;;24.00;99.90;;;;;;5134134;28;19959;-43
2023/08/20 10:59:38;;;;;;;;;;;24.10;99.90;;;;;;5133543;28;19919;-43
2023/08/20 11:02:07;;;;;;;;;;;24.20;99.90;;;;;;5133162;28;19912;-42
2023/08/20 11:04:33;;;;;;;;;;;24.20;99.90;;;;;;5133320;28;19916;-44
2023/08/20 11:06:59;;;;;;;;;;;24.20;99.90;;;;;;5134104;28;19915;-42
2023/08/20 11:09:28;;;;;;;;;;;24.30;99.90;;;;;;5133440;28;19915;-43
2023/08/20 11:11:54;;;;;;;;;;;24.30;99.90;;;;;;5133333;28;19915;-44
2023/08/20 11:14:21;;;;;;;;;;;24.40;99.90;;;;;;5132620;28;19996;-43
2023/08/20 11:16:48;;;;;;;;;;;24.40;99.90;;;;;;5133353;28;19907;-44
2023/08/20 11:19:14;;;;;;;;;;;24.50;99.90;;;;;;5132633;28;20010;-43
2023/08/20 11:21:41;;;;;;;;;;;24.50;99.90;;;;;;5132912;28;19907;-43
2023/08/20 11:24:07;;;;;;;;;;;24.70;99.90;;;;;;5132919;28;20006;-42
2023/08/20 11:26:38;;;;;;;;;;;24.80;99.90;;;;;;5131967;27;20196;-43
2023/08/20 11:29:10;;;;;;;;;;;24.80;99.90;;;;;;5133112;28;20354;-42
2023/08/20 11:31:36;;;;;;;;;;;24.90;99.90;;;;;;5134932;27;19907;-47
2023/08/20 11:34:02;;;;;;;;;;;24.90;99.90;;;;;;5148068;27;19915;-44
2023/08/20 11:36:28;;;;;;;;;;;25.00;99.90;;;;;;5133004;28;19994;-42
2023/08/20 11:38:53;;;;;;;;;;;25.00;99.90;;;;;;5133541;28;20413;-43
2023/08/20 11:41:20;;;;;;;;;;;24.90;99.90;;;;;;5127870;28;19908;-44
2023/08/20 11:43:46;;;;;;;;;;;25.00;99.90;;;;;;5133512;27;19931;-44
2023/08/20 11:46:15;;;;;;;;;;;24.90;99.90;;;;;;5137440;27;20351;-43
2023/08/20 11:49:03;;;;;;;;;;;24.90;99.90;;;;;;5136300;27;20438;-41
2023/08/20 11:51:29;;;;;;;;;;;24.90;99.90;;;;;;5134399;27;19907;-42
2023/08/20 11:53:55;;;;;;;;;;;24.90;99.90;;;;;;5136311;27;19936;-42
2023/08/20 11:56:21;;;;;;;;;;;24.90;99.90;;;;;;5136288;27;19914;-45
2023/08/20 11:58:50;;;;;;;;;;;24.90;99.90;;;;;;5135591;27;19916;-42
2023/08/20 12:01:15;;;;;;;;;;;24.90;99.90;;;;;;5139310;27;19956;-42
2023/08/20 12:03:43;;;;;;;;;;;24.80;99.90;;;;;;5135520;27;19915;-42
2023/08/20 12:06:19;;;;;;;;;;;24.90;99.90;;;;;;5136630;27;19933;-43
2023/08/20 12:08:44;;;;;;;;;;;24.90;99.90;;;;;;5136686;27;20104;-42
2023/08/20 12:11:10;;;;;;;;;;;25.00;99.90;;;;;;5147132;27;20017;-42
2023/08/20 12:13:36;;;;;;;;;;;25.10;99.90;;;;;;5157812;27;20309;-41
2023/08/20 12:16:01;;;;;;;;;;;25.20;99.90;;;;;;5157829;27;19911;-44
2023/08/20 12:18:27;;;;;;;;;;;25.20;99.90;;;;;;5157601;27;20341;-44
2023/08/20 12:20:52;;;;;;;;;;;25.10;99.90;;;;;;5157892;27;19926;-42
2023/08/20 12:23:18;;;;;;;;;;;25.00;99.90;;;;;;5157682;27;20387;-41
2023/08/20 12:25:43;;;;;;;;;;;25.00;99.90;;;;;;5157554;27;20273;-43
2023/08/20 12:28:09;;;;;;;;;;;25.00;99.90;;;;;;5157816;27;19959;-41
2023/08/20 12:30:35;;;;;;;;;;;24.80;99.90;;;;;;5157317;27;20025;-43
2023/08/20 12:33:00;;;;;;;;;;;24.70;99.90;;;;;;5157582;27;19914;-41
2023/08/20 12:35:26;;;;;;;;;;;24.70;99.90;;;;;;5157365;27;19907;-42
2023/08/20 12:37:51;;;;;;;;;;;24.80;99.90;;;;;;5148411;27;20034;-44
2023/08/20 12:40:17;;;;;;;;;;;24.80;99.90;;;;;;5140294;27;19914;-42
2023/08/20 12:42:43;;;;;;;;;;;24.80;99.90;;;;;;5156634;27;20059;-42
2023/08/20 12:45:10;;;;;;;;;;;24.70;99.90;;;;;;5144362;27;19984;-47
2023/08/20 12:47:35;;;;;;;;;;;24.60;99.90;;;;;;5142490;27;19951;-46
2023/08/20 12:50:01;;;;;;;;;;;24.50;99.90;;;;;;5150513;27;19958;-46
2023/08/20 12:52:26;;;;;;;;;;;24.50;99.90;;;;;;5157068;27;19915;-43
2023/08/20 12:54:52;;;;;;;;;;;24.80;99.90;;;;;;5156949;27;19914;-42
2023/08/20 12:57:17;;;;;;;;;;;25.10;99.90;;;;;;5157088;27;19918;-43
2023/08/20 12:59:43;;;;;;;;;;;25.30;98.80;;;;;;5156859;27;19919;-45
2023/08/20 13:02:09;;;;;;;;;;;25.50;99.20;;;;;;5157077;27;19907;-44
2023/08/20 13:04:34;;;;;;;;;;;25.60;99.80;;;;;;5145025;27;19907;-42
2023/08/20 13:07:01;;;;;;;;;;;25.80;99.90;;;;;;5136134;27;19911;-42
2023/08/20 13:09:27;;;;;;;;;;;26.00;99.90;;;;;;5135933;27;20006;-43
2023/08/20 13:11:53;;;;;;;;;;;26.20;98.80;;;;;;5135782;27;19911;-49
2023/08/20 13:14:19;;;;;;;;;;;26.50;98.30;;;;;;5135747;27;19930;-43
2023/08/20 13:16:44;;;;;;;;;;;26.70;99.40;;;;;;5135757;27;19911;-43
2023/08/20 13:19:10;;;;;;;;;;;27.00;98.80;;;;;;5135773;27;19923;-42
2023/08/20 13:21:35;;;;;;;;;;;27.20;95.90;;;;;;5135688;27;19908;-42
2023/08/20 13:24:01;;;;;;;;;;;27.30;93.90;;;;;;5135768;27;19995;-41
2023/08/20 13:26:26;;;;;;;;;;;27.30;94.30;;;;;;5135780;27;19908;-43
2023/08/20 13:28:52;;;;;;;;;;;27.50;96.60;;;;;;5135443;27;20294;-43
2023/08/20 13:31:17;;;;;;;;;;;27.70;91.90;;;;;;5141025;27;19907;-43
2023/08/20 13:33:43;;;;;;;;;;;27.90;94.50;;;;;;5137554;27;20314;-47
2023/08/20 13:36:08;;;;;;;;;;;28.00;93.00;;;;;;5135533;27;19914;-43
2023/08/20 13:38:34;;;;;;;;;;;28.30;94.10;;;;;;5135192;27;19915;-44
2023/08/20 13:40:59;;;;;;;;;;;28.20;95.00;;;;;;5135335;27;19907;-44
2023/08/20 13:43:25;;;;;;;;;;;28.00;94.10;;;;;;5135113;27;19907;-46
2023/08/20 13:45:50;;;;;;;;;;;28.20;93.30;;;;;;5135045;27;19926;-43
2023/08/20 13:48:16;;;;;;;;;;;28.20;94.30;;;;;;5135282;27;19914;-43
2023/08/20 13:50:42;;;;;;;;;;;28.10;92.30;;;;;;5135242;27;20372;-43
2023/08/20 13:53:07;;;;;;;;;;;28.10;93.10;;;;;;5134567;27;19942;-47
2023/08/20 13:55:33;;;;;;;;;;;28.30;93.50;;;;;;5128248;27;19912;-44
2023/08/20 13:57:59;;;;;;;;;;;28.60;94.70;;;;;;5134383;27;19911;-45
2023/08/20 14:00:24;;;;;;;;;;;28.80;91.90;;;;;;5134395;27;19972;-43
2023/08/20 14:02:50;;;;;;;;;;;29.00;94.50;;;;;;5145336;27;19918;-44
2023/08/20 14:05:16;;;;;;;;;;;29.10;91.30;;;;;;5127782;27;19911;-43
2023/08/20 14:07:41;;;;;;;;;;;29.20;91.70;;;;;;5133142;27;19914;-45
2023/08/20 14:10:07;;;;;;;;;;;29.20;93.40;;;;;;5127811;27;19916;-43
2023/08/20 14:12:33;;;;;;;;;;;29.10;88.90;;;;;;5134074;27;19907;-44